createdAt,value
2018-08-18T00:00:31.541Z,99.90
2018-08-18T00:03:01.130Z,99.90
2018-08-18T00:05:30.769Z,99.90
2018-08-18T00:08:00.629Z,99.90
2018-08-18T00:10:30.234Z,99.90
2018-08-18T00:12:59.897Z,99.90
2018-08-18T00:15:29.604Z,99.90
2018-08-18T00:17:59.114Z,99.90
2018-08-18T00:20:28.615Z,99.90
2018-08-18T00:22:57.957Z,99.90
2018-08-18T00:25:27.323Z,99.90
2018-08-18T00:27:57.604Z,99.90
2018-08-18T00:30:27.237Z,99.90
2018-08-18T00:32:56.811Z,99.90
2018-08-18T00:35:26.418Z,99.90
2018-08-18T00:37:56.375Z,99.90
2018-08-18T00:40:25.763Z,99.90
2018-08-18T00:42:56.127Z,99.90
2018-08-18T00:45:26.899Z,99.90
2018-08-18T00:47:56.346Z,99.90
2018-08-18T00:50:38.284Z,99.90
2018-08-18T00:53:09.103Z,99.90
2018-08-18T00:55:39.456Z,99.90
2018-08-18T00:58:18.736Z,99.90
2018-08-18T01:00:55.020Z,99.90
2018-08-18T01:03:24.412Z,99.90
2018-08-18T01:05:54.300Z,99.90
2018-08-18T01:08:23.640Z,99.90
2018-08-18T01:10:54.554Z,99.90
2018-08-18T01:13:23.957Z,99.90
2018-08-18T01:15:53.464Z,99.90
2018-08-18T01:18:22.787Z,99.90
2018-08-18T01:20:52.648Z,99.90
2018-08-18T01:23:21.988Z,99.90
2018-08-18T01:25:51.336Z,99.90
2018-08-18T01:28:20.707Z,99.90
2018-08-18T01:31:04.199Z,99.90
2018-08-18T01:33:33.959Z,99.90
2018-08-18T01:36:04.261Z,99.90
2018-08-18T01:53:37.167Z,99.90
2018-08-18T02:02:13.862Z,99.90
2018-08-18T02:04:43.651Z,99.90
2018-08-18T02:07:22.605Z,99.90
2018-08-18T02:09:51.954Z,99.90
2018-08-18T02:12:21.302Z,99.90
2018-08-18T02:14:50.770Z,99.90
2018-08-18T02:17:35.696Z,99.90
2018-08-18T02:20:06.945Z,99.90
2018-08-18T02:22:36.290Z,99.90
2018-08-18T02:25:06.639Z,99.90
2018-08-18T02:27:36.158Z,99.90
2018-08-18T02:30:23.858Z,99.90
2018-08-18T02:32:53.087Z,99.90
2018-08-18T02:35:23.850Z,99.90
2018-08-18T02:37:53.142Z,99.90
2018-08-18T02:40:22.480Z,99.90
2018-08-18T02:42:51.683Z,99.90
2018-08-18T02:45:21.399Z,99.90
2018-08-18T02:48:04.765Z,99.90
2018-08-18T02:50:34.031Z,99.90
2018-08-18T02:53:07.783Z,99.90
2018-08-18T02:55:37.103Z,99.90
2018-08-18T02:58:06.295Z,99.90
2018-08-18T03:00:36.058Z,99.90
2018-08-18T03:03:05.287Z,99.90
2018-08-18T03:05:34.529Z,99.90
2018-08-18T03:08:03.896Z,99.90
2018-08-18T03:10:33.992Z,99.90
2018-08-18T03:13:03.207Z,99.90
2018-08-18T03:16:06.270Z,99.90
2018-08-18T03:18:54.116Z,99.90
2018-08-18T03:21:29.789Z,99.90
2018-08-18T03:24:10.361Z,99.90
2018-08-18T03:26:44.547Z,99.90
2018-08-18T03:29:14.892Z,99.90
2018-08-18T03:31:44.487Z,99.90
2018-08-18T03:34:14.423Z,99.90
2018-08-18T03:36:49.271Z,99.90
2018-08-18T03:39:25.693Z,99.90
2018-08-18T03:41:56.111Z,99.90
2018-08-18T03:44:25.653Z,99.90
2018-08-18T03:46:55.034Z,99.90
2018-08-18T03:49:24.368Z,99.90
2018-08-18T03:51:54.718Z,99.90
2018-08-18T03:54:24.106Z,99.90
2018-08-18T03:56:53.270Z,99.90
2018-08-18T03:59:22.785Z,99.90
2018-08-18T04:01:58.468Z,99.90
2018-08-18T04:04:31.327Z,99.90
2018-08-18T04:07:01.813Z,99.90
2018-08-18T04:09:32.449Z,99.90
2018-08-18T04:12:07.481Z,99.90
2018-08-18T04:14:38.895Z,99.90
2018-08-18T04:17:38.923Z,99.90
2018-08-18T04:20:08.310Z,99.90
2018-08-18T04:22:37.514Z,99.90
2018-08-18T04:25:07.132Z,99.90
2018-08-18T04:27:40.006Z,99.90
2018-08-18T04:30:11.091Z,99.90
2018-08-18T04:32:51.211Z,99.90
2018-08-18T04:35:22.650Z,99.90
2018-08-18T04:37:53.338Z,99.90
2018-08-18T04:40:23.798Z,99.90
2018-08-18T04:42:53.128Z,99.90
2018-08-18T04:45:22.986Z,99.90
2018-08-18T04:47:52.355Z,99.90
2018-08-18T04:50:22.654Z,99.90
2018-08-18T04:52:52.722Z,99.90
2018-08-18T04:55:22.332Z,99.90
2018-08-18T04:57:51.651Z,99.90
2018-08-18T05:00:21.183Z,99.90
2018-08-18T05:02:55.942Z,99.90
2018-08-18T05:05:27.676Z,99.90
2018-08-18T05:08:04.200Z,99.90
2018-08-18T05:10:36.019Z,99.90
2018-08-18T05:13:05.498Z,99.90
2018-08-18T05:15:35.003Z,99.90
2018-08-18T05:18:04.251Z,99.90
2018-08-18T05:20:33.470Z,99.90
2018-08-18T05:23:20.769Z,99.90
2018-08-18T05:25:51.826Z,99.90
2018-08-18T05:28:21.235Z,99.90
2018-08-18T05:30:52.871Z,99.90
2018-08-18T05:33:22.368Z,99.90
2018-08-18T05:35:51.791Z,99.90
2018-08-18T05:38:21.427Z,99.90
2018-08-18T05:40:50.996Z,99.90
2018-08-18T05:43:20.334Z,99.90
2018-08-18T05:45:50.268Z,99.90
2018-08-18T05:48:19.527Z,99.90
2018-08-18T05:50:49.045Z,99.90
2018-08-18T05:53:22.594Z,99.90
2018-08-18T05:55:52.412Z,99.90
2018-08-18T05:58:21.986Z,99.90
2018-08-18T06:00:56.469Z,99.90
2018-08-18T06:03:26.142Z,99.90
2018-08-18T06:05:56.372Z,99.90
2018-08-18T06:08:25.670Z,99.90
2018-08-18T06:10:55.199Z,99.90
2018-08-18T06:13:25.111Z,99.90
2018-08-18T06:16:10.547Z,99.90
2018-08-18T06:18:40.730Z,99.90
2018-08-18T06:21:10.553Z,99.90
2018-08-18T06:23:40.178Z,99.90
2018-08-18T06:26:10.400Z,99.90
2018-08-18T06:28:39.756Z,99.90
2018-08-18T06:31:09.485Z,99.90
2018-08-18T06:33:39.536Z,99.90
2018-08-18T06:36:09.006Z,99.90
2018-08-18T06:38:38.458Z,99.90
2018-08-18T06:41:08.711Z,99.90
2018-08-18T06:43:38.173Z,99.90
2018-08-18T06:46:08.812Z,99.90
2018-08-18T06:48:45.027Z,99.90
2018-08-18T06:51:14.792Z,99.90
2018-08-18T06:53:49.657Z,99.90
2018-08-18T06:56:19.859Z,99.90
2018-08-18T06:58:51.625Z,99.90
2018-08-18T07:01:21.507Z,99.90
2018-08-18T07:03:50.884Z,99.90
2018-08-18T07:06:20.252Z,99.90
2018-08-18T07:08:55.124Z,99.90
2018-08-18T07:11:25.401Z,99.90
2018-08-18T07:13:55.861Z,99.90
2018-08-18T07:16:28.168Z,99.90
2018-08-18T07:18:57.841Z,99.90
2018-08-18T07:21:27.164Z,99.90
2018-08-18T07:23:56.862Z,99.90
2018-08-18T07:26:35.976Z,99.90
2018-08-18T07:29:06.739Z,99.90
2018-08-18T07:31:36.096Z,99.90
2018-08-18T07:34:05.372Z,99.90
2018-08-18T07:36:34.922Z,99.90
2018-08-18T07:39:04.958Z,99.90
2018-08-18T07:41:35.576Z,99.90
2018-08-18T07:44:04.994Z,99.90
2018-08-18T07:46:34.952Z,99.90
2018-08-18T07:49:15.945Z,99.90
2018-08-18T07:51:46.285Z,99.90
2018-08-18T07:54:16.204Z,99.90
2018-08-18T07:56:46.580Z,99.90
2018-08-18T07:59:17.157Z,99.90
2018-08-18T08:01:47.502Z,99.90
2018-08-18T08:04:18.340Z,99.90
2018-08-18T08:06:47.725Z,99.90
2018-08-18T08:09:17.559Z,99.90
2018-08-18T08:11:47.010Z,99.90
2018-08-18T08:14:16.509Z,99.90
2018-08-18T08:16:46.009Z,99.90
2018-08-18T08:19:15.370Z,99.90
2018-08-18T08:21:44.885Z,99.40
2018-08-18T08:24:15.662Z,99.90
2018-08-18T08:26:45.205Z,99.40
2018-08-18T08:29:14.533Z,98.90
2018-08-18T08:31:43.829Z,98.70
2018-08-18T08:34:13.186Z,99.20
2018-08-18T08:36:43.125Z,97.40
2018-08-18T08:39:12.837Z,97.90
2018-08-18T08:41:48.271Z,98.00
2018-08-18T08:44:17.697Z,99.50
2018-08-18T08:46:59.822Z,98.80
2018-08-18T08:49:29.061Z,98.70
2018-08-18T08:52:05.117Z,96.40
2018-08-18T08:54:35.648Z,96.10
2018-08-18T08:57:07.560Z,96.40
2018-08-18T08:59:38.064Z,96.20
2018-08-18T09:02:09.371Z,96.40
2018-08-18T09:04:38.926Z,94.10
2018-08-18T09:07:13.024Z,93.80
2018-08-18T09:09:42.431Z,94.20
2018-08-18T09:12:11.926Z,92.40
2018-08-18T09:14:42.506Z,93.70
2018-08-18T09:17:12.216Z,94.90
2018-08-18T09:19:41.762Z,93.40
2018-08-18T09:22:11.289Z,94.30
2018-08-18T09:24:40.564Z,93.30
2018-08-18T09:27:10.078Z,93.30
2018-08-18T09:29:46.551Z,92.90
2018-08-18T09:32:17.627Z,93.50
2018-08-18T09:34:52.182Z,93.60
2018-08-18T09:37:23.411Z,94.70
2018-08-18T09:39:54.496Z,94.50
2018-08-18T09:42:24.812Z,93.70
2018-08-18T09:44:55.045Z,93.90
2018-08-18T09:47:25.359Z,94.20
2018-08-18T09:49:54.915Z,94.30
2018-08-18T09:52:24.374Z,93.70
2018-08-18T09:54:55.233Z,93.40
2018-08-18T09:57:24.727Z,93.70
2018-08-18T09:59:53.987Z,93.70
2018-08-18T10:02:23.343Z,93.00
2018-08-18T10:04:52.485Z,94.10
2018-08-18T10:07:22.845Z,92.60
2018-08-18T10:09:54.648Z,94.10
2018-08-18T10:12:24.230Z,93.30
2018-08-18T10:14:53.506Z,92.20
2018-08-18T10:17:22.759Z,92.50
2018-08-18T10:19:51.987Z,92.30
2018-08-18T10:22:21.760Z,92.30
2018-08-18T10:24:50.914Z,92.90
2018-08-18T10:27:24.252Z,90.90
2018-08-18T10:29:54.734Z,91.40
2018-08-18T10:32:24.932Z,91.90
2018-08-18T10:34:55.092Z,90.60
2018-08-18T10:37:25.412Z,89.10
2018-08-18T10:40:08.425Z,89.00
2018-08-18T10:42:38.388Z,88.30
2018-08-18T10:45:09.833Z,88.20
2018-08-18T10:47:39.261Z,87.60
2018-08-18T10:50:53.936Z,87.30
2018-08-18T10:53:23.839Z,86.50
2018-08-18T10:55:53.345Z,86.40
2018-08-18T10:58:33.555Z,86.70
2018-08-18T11:01:02.806Z,86.60
2018-08-18T11:03:32.095Z,86.00
2018-08-18T11:06:01.497Z,87.90
2018-08-18T11:08:30.849Z,85.20
2018-08-18T11:11:00.662Z,86.90
2018-08-18T11:13:29.941Z,85.90
2018-08-18T11:16:00.514Z,84.70
2018-08-18T11:18:30.265Z,86.40
2018-08-18T11:21:00.453Z,85.40
2018-08-18T11:23:29.926Z,85.10
2018-08-18T11:25:59.447Z,84.20
2018-08-18T11:28:32.616Z,86.40
2018-08-18T11:31:01.986Z,84.80
2018-08-18T11:33:40.781Z,85.70
2018-08-18T11:36:11.071Z,85.50
2018-08-18T11:38:40.981Z,84.80
2018-08-18T11:41:10.317Z,80.80
2018-08-18T11:43:51.385Z,82.70
2018-08-18T11:46:20.674Z,82.90
2018-08-18T11:48:51.115Z,83.80
2018-08-18T11:51:21.725Z,81.70
2018-08-18T11:54:00.547Z,81.70
2018-08-18T11:56:29.964Z,83.00
2018-08-18T11:59:10.089Z,84.50
2018-08-18T12:01:40.715Z,83.90
2018-08-18T12:04:10.397Z,85.50
2018-08-18T12:06:45.205Z,85.10
2018-08-18T12:09:14.385Z,82.40
2018-08-18T12:11:43.872Z,82.20
2018-08-18T12:14:13.757Z,81.10
2018-08-18T12:16:43.140Z,79.40
2018-08-18T12:19:12.457Z,80.80
2018-08-18T12:21:44.304Z,81.20
2018-08-18T12:24:15.337Z,79.80
2018-08-18T12:26:54.266Z,80.30
2018-08-18T12:29:23.779Z,80.00
2018-08-18T12:31:53.591Z,80.70
2018-08-18T12:34:23.176Z,80.10
2018-08-18T12:36:52.814Z,77.70
2018-08-18T12:39:22.124Z,78.10
2018-08-18T12:41:52.740Z,77.70
2018-08-18T12:44:26.081Z,77.90
2018-08-18T12:46:55.423Z,76.60
2018-08-18T12:49:25.198Z,77.50
2018-08-18T12:51:54.684Z,75.20
2018-08-18T12:54:24.028Z,76.40
2018-08-18T12:56:53.463Z,77.10
2018-08-18T12:59:23.089Z,76.90
2018-08-18T13:01:52.633Z,78.60
2018-08-18T13:04:22.855Z,76.30
2018-08-18T13:06:54.694Z,76.70
2018-08-18T13:09:25.584Z,76.50
2018-08-18T13:11:56.147Z,78.10
2018-08-18T13:14:28.769Z,78.20
2018-08-18T13:16:58.164Z,79.40
2018-08-18T13:19:30.929Z,78.80
2018-08-18T13:22:00.189Z,77.70
2018-08-18T13:24:31.057Z,78.60
2018-08-18T13:27:02.505Z,78.50
2018-08-18T13:29:33.033Z,78.40
2018-08-18T13:32:02.516Z,76.00
2018-08-18T13:34:31.807Z,75.10
2018-08-18T13:37:01.301Z,75.30
2018-08-18T13:39:30.599Z,77.30
2018-08-18T13:42:04.929Z,77.80
2018-08-18T13:44:37.224Z,77.70
2018-08-18T13:47:06.549Z,78.50
2018-08-18T13:49:35.773Z,77.00
2018-08-18T13:52:05.053Z,77.20
2018-08-18T13:54:34.859Z,76.60
2018-08-18T13:57:04.109Z,76.30
2018-08-18T13:59:48.345Z,77.20
2018-08-18T14:02:17.810Z,76.30
2018-08-18T14:04:47.240Z,75.50
2018-08-18T14:07:16.632Z,75.00
2018-08-18T14:09:51.829Z,76.40
2018-08-18T14:12:21.098Z,75.00
2018-08-18T14:14:50.453Z,76.30
2018-08-18T14:17:21.868Z,74.00
2018-08-18T14:19:51.913Z,75.50
2018-08-18T14:22:22.280Z,75.30
2018-08-18T14:24:51.543Z,74.80
2018-08-18T14:27:23.050Z,76.00
2018-08-18T14:29:52.409Z,75.50
2018-08-18T14:32:25.722Z,74.30
2018-08-18T14:35:12.272Z,73.30
2018-08-18T14:37:42.888Z,72.90
2018-08-18T14:40:17.365Z,75.50
2018-08-18T14:42:48.589Z,73.70
2018-08-18T14:45:19.953Z,74.40
2018-08-18T14:47:50.465Z,72.80
2018-08-18T14:50:26.704Z,74.70
2018-08-18T14:52:56.046Z,75.00
2018-08-18T14:55:25.397Z,73.00
2018-08-18T14:58:05.842Z,72.50
2018-08-18T15:00:35.066Z,72.60
2018-08-18T15:03:04.411Z,73.40
2018-08-18T15:05:33.580Z,74.70
2018-08-18T15:08:04.250Z,73.10
2018-08-18T15:10:43.620Z,72.60
2018-08-18T15:13:13.360Z,71.90
2018-08-18T15:15:42.806Z,70.20
2018-08-18T15:18:14.946Z,70.90
2018-08-18T15:20:44.676Z,70.80
2018-08-18T15:23:14.773Z,71.30
2018-08-18T15:25:45.112Z,71.40
2018-08-18T15:28:16.086Z,71.80
2018-08-18T15:30:47.170Z,72.20
2018-08-18T15:33:18.090Z,71.90
2018-08-18T15:35:47.368Z,71.30
2018-08-18T15:38:16.781Z,72.20
2018-08-18T15:40:46.308Z,71.70
2018-08-18T15:43:16.089Z,72.10
2018-08-18T15:46:03.459Z,72.10
2018-08-18T15:48:33.016Z,73.20
2018-08-18T15:51:02.521Z,73.00
2018-08-18T15:53:55.853Z,72.80
2018-08-18T15:56:26.168Z,72.50
2018-08-18T15:58:56.685Z,71.50
2018-08-18T16:01:30.258Z,72.10
2018-08-18T16:04:01.485Z,72.50
2018-08-18T16:06:30.810Z,72.10
2018-08-18T16:09:00.548Z,74.10
2018-08-18T16:11:29.813Z,74.10
2018-08-18T16:14:00.329Z,74.30
2018-08-18T16:16:29.624Z,74.90
2018-08-18T16:19:04.286Z,75.70
2018-08-18T16:21:34.835Z,76.20
2018-08-18T16:24:04.253Z,74.80
2018-08-18T16:26:39.416Z,75.00
2018-08-18T16:29:08.664Z,75.50
2018-08-18T16:31:38.125Z,76.40
2018-08-18T16:34:08.043Z,76.90
2018-08-18T16:36:43.241Z,77.50
2018-08-18T16:39:12.720Z,78.50
2018-08-18T16:41:42.416Z,78.80
2018-08-18T16:44:12.057Z,79.00
2018-08-18T16:46:41.530Z,79.30
2018-08-18T16:49:10.892Z,80.70
2018-08-18T16:51:41.445Z,81.70
2018-08-18T16:54:20.473Z,83.30
2018-08-18T16:56:49.940Z,84.00
2018-08-18T16:59:20.628Z,85.30
2018-08-18T17:01:50.312Z,85.90
2018-08-18T17:04:25.491Z,86.60
2018-08-18T17:06:54.797Z,87.30
2018-08-18T17:09:38.096Z,87.80
2018-08-18T17:12:16.031Z,88.10
2018-08-18T17:14:45.284Z,89.00
2018-08-18T17:17:14.868Z,89.50
2018-08-18T17:19:44.250Z,89.80
2018-08-18T17:22:15.312Z,90.20
2018-08-18T17:24:44.947Z,90.20
2018-08-18T17:27:14.536Z,90.40
2018-08-18T17:29:49.721Z,90.60
2018-08-18T17:32:19.097Z,90.60
2018-08-18T17:34:48.460Z,90.70
2018-08-18T17:37:17.902Z,91.00
2018-08-18T17:39:47.500Z,91.00
2018-08-18T17:42:16.871Z,90.90
2018-08-18T17:44:46.446Z,91.00
2018-08-18T17:47:15.929Z,91.10
2018-08-18T17:49:52.459Z,91.20
2018-08-18T17:52:21.868Z,91.20
2018-08-18T17:55:10.281Z,91.50
2018-08-18T17:57:39.902Z,91.70
2018-08-18T18:00:18.655Z,91.60
2018-08-18T18:02:54.117Z,91.70
2018-08-18T18:05:25.621Z,91.90
2018-08-18T18:07:57.493Z,92.10
2018-08-18T18:10:39.306Z,92.30
2018-08-18T18:13:14.863Z,92.30
2018-08-18T18:15:45.221Z,92.60
2018-08-18T18:18:16.481Z,92.40
2018-08-18T18:20:46.970Z,93.00
2018-08-18T18:23:16.730Z,92.70
2018-08-18T18:25:46.213Z,92.80
2018-08-18T18:28:15.629Z,93.00
2018-08-18T18:30:44.993Z,93.20
2018-08-18T18:33:15.537Z,93.30
2018-08-18T18:35:44.713Z,93.20
2018-08-18T18:38:13.925Z,93.10
2018-08-18T18:40:45.189Z,93.20
2018-08-18T18:43:14.968Z,93.50
2018-08-18T18:45:44.601Z,93.50
2018-08-18T18:48:17.281Z,93.40
2018-08-18T18:50:48.584Z,93.50
2018-08-18T18:53:17.948Z,93.60
2018-08-18T18:55:52.305Z,93.60
2018-08-18T18:58:21.657Z,93.70
2018-08-18T19:01:00.738Z,93.90
2018-08-18T19:03:30.003Z,94.20
2018-08-18T19:05:59.521Z,94.40
2018-08-18T19:08:28.856Z,94.30
2018-08-18T19:10:59.880Z,94.40
2018-08-18T19:13:29.329Z,94.30
2018-08-18T19:15:58.575Z,94.50
2018-08-18T19:18:27.778Z,94.60
2018-08-18T19:20:56.980Z,94.90
2018-08-18T19:23:26.428Z,94.90
2018-08-18T19:25:56.059Z,94.90
2018-08-18T19:28:25.428Z,95.10
2018-08-18T19:30:54.774Z,95.10
2018-08-18T19:33:24.057Z,95.20
2018-08-18T19:36:08.599Z,95.30
2018-08-18T19:38:37.808Z,95.70
2018-08-18T19:41:07.152Z,95.80
2018-08-18T19:43:42.396Z,96.10
2018-08-18T19:46:11.873Z,96.10
2018-08-18T19:48:41.080Z,96.30
2018-08-18T19:51:10.477Z,96.20
2018-08-18T19:53:39.721Z,96.50
2018-08-18T19:56:11.145Z,96.50
2018-08-18T19:58:40.712Z,96.70
2018-08-18T20:01:09.873Z,96.60
2018-08-18T20:03:39.144Z,97.00
2018-08-18T20:06:25.372Z,97.00
2018-08-18T20:08:54.665Z,97.40
2018-08-18T20:11:23.903Z,97.40
2018-08-18T20:13:53.500Z,97.40
2018-08-18T20:16:22.951Z,97.70
2018-08-18T20:18:52.332Z,97.90
2018-08-18T20:21:21.808Z,97.80
2018-08-18T20:23:51.194Z,98.00
2018-08-18T20:26:20.508Z,98.10
2018-08-18T20:28:50.369Z,98.40
2018-08-18T20:31:19.707Z,98.40
2018-08-18T20:33:49.609Z,98.50
2018-08-18T20:36:20.495Z,98.90
2018-08-18T20:38:49.983Z,99.10
2018-08-18T20:41:19.472Z,99.10
2018-08-18T20:43:49.235Z,99.20
2018-08-18T20:49:12.686Z,99.50
2018-08-18T20:51:41.934Z,99.60
2018-08-18T20:54:11.375Z,99.80
2018-08-18T20:56:41.017Z,99.80
2018-08-18T20:59:10.995Z,99.70
2018-08-18T21:01:40.404Z,99.80
2018-08-18T21:04:10.047Z,99.90
2018-08-18T21:06:39.517Z,99.90
2018-08-18T21:09:23.825Z,99.90
2018-08-18T21:11:53.430Z,99.90
2018-08-18T21:14:37.734Z,99.90
2018-08-18T21:17:07.093Z,99.90
2018-08-18T21:19:37.284Z,99.90
2018-08-18T21:22:09.091Z,99.90
2018-08-18T21:24:38.516Z,99.90
2018-08-18T21:27:07.867Z,99.90
2018-08-18T21:29:37.170Z,99.90
2018-08-18T21:32:09.037Z,99.90
2018-08-18T21:34:44.204Z,99.90
2018-08-18T21:37:13.533Z,99.90
2018-08-18T21:39:42.905Z,99.90
2018-08-18T21:42:12.200Z,99.90
2018-08-18T21:44:41.693Z,99.90
2018-08-18T21:47:20.796Z,99.90
2018-08-18T21:49:50.304Z,99.90
2018-08-18T21:52:19.868Z,99.90
2018-08-18T21:54:49.189Z,99.90
2018-08-18T21:57:19.987Z,99.90
2018-08-18T21:59:56.489Z,99.90
2018-08-18T22:05:17.980Z,99.90
2018-08-18T22:07:51.638Z,99.90
2018-08-18T22:10:21.432Z,99.90
2018-08-18T22:12:50.682Z,99.90
2018-08-18T22:15:23.434Z,99.90
2018-08-18T22:17:53.252Z,99.90
2018-08-18T22:20:38.408Z,99.90
2018-08-18T22:23:08.572Z,99.90
2018-08-18T22:25:37.792Z,99.90
2018-08-18T22:28:07.038Z,99.90
2018-08-18T22:30:46.806Z,99.90
2018-08-18T22:33:16.175Z,99.90
2018-08-18T22:35:54.641Z,99.90
2018-08-18T22:38:23.895Z,99.90
2018-08-18T22:41:01.094Z,99.90
2018-08-18T22:43:36.620Z,99.90
2018-08-18T22:46:06.009Z,99.90
2018-08-18T22:48:36.546Z,99.90
2018-08-18T22:51:05.894Z,99.90
2018-08-18T22:53:35.316Z,99.90
2018-08-18T22:56:05.437Z,99.90
2018-08-18T22:58:34.696Z,99.90
2018-08-18T23:01:04.072Z,99.90
2018-08-18T23:03:34.661Z,99.90
2018-08-18T23:06:03.980Z,99.90
2018-08-18T23:08:33.191Z,99.90
2018-08-18T23:11:02.495Z,99.90
2018-08-18T23:13:32.076Z,99.90
2018-08-18T23:16:01.221Z,99.90
2018-08-18T23:18:35.406Z,99.90
2018-08-18T23:21:04.673Z,99.90
2018-08-18T23:23:34.063Z,99.90
2018-08-18T23:26:03.377Z,99.90
2018-08-18T23:28:32.668Z,99.90
2018-08-18T23:31:02.081Z,99.90
2018-08-18T23:33:33.774Z,99.90
2018-08-18T23:36:03.059Z,99.90
2018-08-18T23:38:32.328Z,99.90
2018-08-18T23:43:44.389Z,99.90
2018-08-18T23:46:13.640Z,99.90
2018-08-18T23:48:42.877Z,99.90
2018-08-18T23:51:15.986Z,99.90
2018-08-18T23:53:45.329Z,99.90
2018-08-18T23:56:14.591Z,99.90
2018-08-18T23:58:44.122Z,99.90
